Time;durP1;ratioP1;P1;durP2;ratioP2;P2;SDS_P1;SDS_P2;PMS_P1;PMS_P2;Temp;Humidity;BMP_temperature;BMP_pressure;BME280_temperature;BME280_humidity;BME280_pressure;Samples;Min_cycle;Max_cycle;Signal;HPM_P1;HPM_P2
2023/05/01 00:02:17;;;;;;;2.63;2.60;;;;;;;;;;4164324;28;20251;-80
2023/05/01 00:04:37;;;;;;;2.45;2.45;;;;;;;;;;4160481;28;20383;-80
2023/05/01 00:06:57;;;;;;;2.40;2.30;;;;;;;;;;4170082;28;20083;-80
2023/05/01 00:09:18;;;;;;;1.77;1.77;;;;;;;;;;4177296;28;20044;-80
2023/05/01 00:11:38;;;;;;;3.13;3.03;;;;;;;;;;4163236;28;20088;-80
2023/05/01 00:13:58;;;;;;;3.38;2.40;;;;;;;;;;4175130;28;20244;-80
2023/05/01 00:16:19;;;;;;;1.70;1.70;;;;;;;;;;4156565;28;20050;-80
2023/05/01 00:18:39;;;;;;;1.83;1.83;;;;;;;;;;4176640;28;20049;-80
2023/05/01 00:20:59;;;;;;;1.85;1.75;;;;;;;;;;4174534;28;20136;-80
2023/05/01 00:23:19;;;;;;;2.00;1.90;;;;;;;;;;4173725;28;20359;-80
2023/05/01 00:25:40;;;;;;;2.20;2.15;;;;;;;;;;4169646;28;20051;-80
2023/05/01 00:28:00;;;;;;;2.72;2.50;;;;;;;;;;4172945;28;20048;-80
2023/05/01 00:30:20;;;;;;;2.03;1.92;;;;;;;;;;4163006;28;20047;-80
2023/05/01 00:32:40;;;;;;;2.55;2.35;;;;;;;;;;4175483;28;20053;-80
2023/05/01 00:35:01;;;;;;;1.90;1.80;;;;;;;;;;4172698;28;20047;-80
2023/05/01 00:37:21;;;;;;;2.00;1.90;;;;;;;;;;4174882;28;20407;-80
2023/05/01 00:39:41;;;;;;;1.83;1.83;;;;;;;;;;4165243;28;20057;-80
2023/05/01 00:42:02;;;;;;;1.98;1.98;;;;;;;;;;4178687;28;20394;-80
2023/05/01 00:44:22;;;;;;;2.05;2.05;;;;;;;;;;4162706;28;20089;-80
2023/05/01 00:46:43;;;;;;;2.00;1.90;;;;;;;;;;4178461;28;20056;-80
2023/05/01 00:49:03;;;;;;;1.90;1.90;;;;;;;;;;4163914;28;20073;-80
2023/05/01 00:51:24;;;;;;;2.30;2.25;;;;;;;;;;4166336;28;20367;-80
2023/05/01 00:53:44;;;;;;;2.15;2.05;;;;;;;;;;4178264;28;20043;-80
2023/05/01 00:56:05;;;;;;;2.15;2.15;;;;;;;;;;4174767;28;20113;-80
2023/05/01 00:58:26;;;;;;;2.38;2.22;;;;;;;;;;4174102;28;20040;-80
2023/05/01 01:00:46;;;;;;;2.13;2.13;;;;;;;;;;4176218;28;20103;-87
2023/05/01 01:03:06;;;;;;;2.10;2.10;;;;;;;;;;4187161;22;20053;-56
2023/05/01 01:05:29;;;;;;;2.40;2.30;;;;;;;;;;4205214;28;20155;-56
2023/05/01 01:08:09;;;;;;;2.20;2.17;;;;;;;;;;4206341;28;20071;-56
2023/05/01 01:10:48;;;;;;;2.13;2.13;;;;;;;;;;4175306;28;20047;-56
2023/05/01 01:13:18;;;;;;;2.45;2.38;;;;;;;;;;4206624;28;20226;-57
2023/05/01 01:15:41;;;;;;;2.33;2.22;;;;;;;;;;4206533;28;20298;-55
2023/05/01 01:18:07;;;;;;;2.10;2.10;;;;;;;;;;4205613;28;20094;-55
2023/05/01 01:20:41;;;;;;;2.45;2.38;;;;;;;;;;4206769;28;20111;-56
2023/05/01 01:23:01;;;;;;;2.20;2.10;;;;;;;;;;4206306;28;20055;-56
2023/05/01 01:25:21;;;;;;;1.77;1.77;;;;;;;;;;4206770;28;20353;-56
2023/05/01 01:28:08;;;;;;;1.50;1.50;;;;;;;;;;4206018;28;20269;-55
2023/05/01 01:30:38;;;;;;;1.70;1.70;;;;;;;;;;4183150;28;20051;-56
2023/05/01 01:33:10;;;;;;;1.27;1.27;;;;;;;;;;4206533;28;20055;-56
2023/05/01 01:35:30;;;;;;;1.37;1.37;;;;;;;;;;4206027;28;20316;-56
2023/05/01 01:38:00;;;;;;;1.70;1.50;;;;;;;;;;4206607;28;20343;-56
2023/05/01 01:40:22;;;;;;;2.30;1.73;;;;;;;;;;4205101;28;20055;-55
2023/05/01 01:43:05;;;;;;;1.88;1.20;;;;;;;;;;4190062;28;20135;-56
2023/05/01 01:45:30;;;;;;;1.42;1.42;;;;;;;;;;4206018;28;20051;-56
2023/05/01 01:47:51;;;;;;;1.27;1.27;;;;;;;;;;4204622;28;20117;-55
2023/05/01 01:50:14;;;;;;;1.60;1.60;;;;;;;;;;4206269;28;20231;-55
2023/05/01 01:52:35;;;;;;;3.45;1.88;;;;;;;;;;4206355;28;20086;-56
2023/05/01 01:55:00;;;;;;;2.55;1.23;;;;;;;;;;4206186;28;20067;-56
2023/05/01 01:57:21;;;;;;;1.33;1.33;;;;;;;;;;4204914;28;20381;-56
2023/05/01 01:59:42;;;;;;;1.65;1.65;;;;;;;;;;4205103;28;20370;-56
2023/05/01 02:02:03;;;;;;;1.30;1.30;;;;;;;;;;4206475;28;20048;-56
2023/05/01 02:04:25;;;;;;;1.98;1.65;;;;;;;;;;4206178;28;20056;-56
2023/05/01 02:06:46;;;;;;;1.30;1.30;;;;;;;;;;4206259;28;20047;-56
2023/05/01 02:09:06;;;;;;;1.40;1.40;;;;;;;;;;4206226;28;20051;-55
2023/05/01 02:11:26;;;;;;;1.25;1.25;;;;;;;;;;4204406;28;20362;-56
2023/05/01 02:13:48;;;;;;;1.40;1.40;;;;;;;;;;4205711;28;20102;-56
2023/05/01 02:16:09;;;;;;;1.40;1.30;;;;;;;;;;4206009;28;20047;-56
2023/05/01 02:18:30;;;;;;;1.30;1.30;;;;;;;;;;4204547;28;20097;-56
2023/05/01 02:20:51;;;;;;;2.00;1.35;;;;;;;;;;4204029;28;20038;-56
2023/05/01 02:23:12;;;;;;;1.70;1.60;;;;;;;;;;4205635;28;20056;-55
2023/05/01 02:25:34;;;;;;;2.00;1.90;;;;;;;;;;4206144;28;20075;-55
2023/05/01 02:28:00;;;;;;;1.85;1.85;;;;;;;;;;4204311;28;20060;-56
2023/05/01 02:30:21;;;;;;;1.52;1.52;;;;;;;;;;4204957;28;20235;-56
2023/05/01 02:32:41;;;;;;;1.63;1.63;;;;;;;;;;4205853;28;20086;-56
2023/05/01 02:35:01;;;;;;;1.60;1.60;;;;;;;;;;4205673;28;20047;-56
2023/05/01 02:37:22;;;;;;;1.38;1.38;;;;;;;;;;4204866;28;20087;-55
2023/05/01 02:39:42;;;;;;;1.40;1.40;;;;;;;;;;4205717;28;20135;-56
2023/05/01 02:42:03;;;;;;;1.30;1.30;;;;;;;;;;4204767;28;20445;-56
2023/05/01 02:44:25;;;;;;;1.30;1.30;;;;;;;;;;4205736;28;20098;-55
2023/05/01 02:46:47;;;;;;;1.75;1.55;;;;;;;;;;4204833;28;20086;-56
2023/05/01 02:49:07;;;;;;;1.70;1.70;;;;;;;;;;4205341;28;20086;-56
2023/05/01 02:51:28;;;;;;;1.30;1.30;;;;;;;;;;4205470;28;20066;-56
2023/05/01 02:53:49;;;;;;;1.45;1.45;;;;;;;;;;4205485;28;20051;-56
2023/05/01 02:56:10;;;;;;;1.50;1.50;;;;;;;;;;4204935;28;20125;-56
2023/05/01 02:58:33;;;;;;;1.60;1.60;;;;;;;;;;4204754;28;20055;-55
2023/05/01 03:00:54;;;;;;;3.38;1.20;;;;;;;;;;4205513;28;20079;-55
2023/05/01 03:03:15;;;;;;;1.83;1.30;;;;;;;;;;4205575;28;20086;-56
2023/05/01 03:05:35;;;;;;;1.40;1.40;;;;;;;;;;4205200;28;20094;-55
2023/05/01 03:07:55;;;;;;;1.70;1.33;;;;;;;;;;4193717;28;20136;-55
2023/05/01 03:10:16;;;;;;;1.30;1.30;;;;;;;;;;4205509;28;20151;-55
2023/05/01 03:12:36;;;;;;;1.50;1.50;;;;;;;;;;4205011;28;20108;-56
2023/05/01 03:14:56;;;;;;;1.50;1.40;;;;;;;;;;4205268;28;20052;-55
2023/05/01 03:17:16;;;;;;;1.30;1.27;;;;;;;;;;4205323;28;20044;-55
2023/05/01 03:19:36;;;;;;;2.55;1.35;;;;;;;;;;4205140;28;20047;-55
2023/05/01 03:21:56;;;;;;;1.50;1.50;;;;;;;;;;4203927;28;20075;-55
2023/05/01 03:24:17;;;;;;;1.30;1.30;;;;;;;;;;4205338;28;20286;-55
2023/05/01 03:26:37;;;;;;;1.98;1.40;;;;;;;;;;4205284;28;20091;-56
2023/05/01 03:28:58;;;;;;;1.60;1.60;;;;;;;;;;4205033;28;20234;-55
2023/05/01 03:31:18;;;;;;;1.30;1.30;;;;;;;;;;4204886;28;20051;-55
2023/05/01 03:33:39;;;;;;;1.42;1.38;;;;;;;;;;4205258;28;20071;-55
2023/05/01 03:36:00;;;;;;;1.60;1.50;;;;;;;;;;4204875;28;20378;-56
2023/05/01 03:38:21;;;;;;;1.58;1.50;;;;;;;;;;4204747;28;20063;-55
2023/05/01 03:40:42;;;;;;;1.48;1.48;;;;;;;;;;4204367;28;20048;-56
2023/05/01 03:43:02;;;;;;;1.50;1.40;;;;;;;;;;4204993;28;20357;-56
2023/05/01 03:45:22;;;;;;;1.90;1.90;;;;;;;;;;4204947;28;20087;-56
2023/05/01 03:47:42;;;;;;;2.25;2.15;;;;;;;;;;4203999;28;20078;-56
2023/05/01 03:50:02;;;;;;;1.90;1.83;;;;;;;;;;4204272;28;20247;-55
2023/05/01 03:52:22;;;;;;;1.67;1.67;;;;;;;;;;4203445;28;20043;-56
2023/05/01 03:54:43;;;;;;;1.60;1.50;;;;;;;;;;4204777;28;20047;-55
2023/05/01 03:57:04;;;;;;;1.58;1.58;;;;;;;;;;4204351;28;20112;-55
2023/05/01 03:59:24;;;;;;;1.60;1.50;;;;;;;;;;4204960;28;20075;-55
2023/05/01 04:01:45;;;;;;;1.50;1.50;;;;;;;;;;4204913;28;20047;-55
2023/05/01 04:04:05;;;;;;;3.05;1.85;;;;;;;;;;4204280;28;20064;-55
2023/05/01 04:06:26;;;;;;;3.05;1.65;;;;;;;;;;4203450;28;20047;-55
2023/05/01 04:08:47;;;;;;;1.58;1.58;;;;;;;;;;4204727;28;20118;-55
2023/05/01 04:11:07;;;;;;;1.55;1.55;;;;;;;;;;4206965;28;20067;-55
2023/05/01 04:13:27;;;;;;;1.42;1.30;;;;;;;;;;4206920;28;20109;-55
2023/05/01 04:15:48;;;;;;;1.60;1.50;;;;;;;;;;4206185;28;20066;-55
2023/05/01 04:18:08;;;;;;;1.63;1.60;;;;;;;;;;4207617;28;20401;-55
2023/05/01 04:20:28;;;;;;;1.30;1.30;;;;;;;;;;4207702;28;20056;-55
2023/05/01 04:22:49;;;;;;;1.95;1.55;;;;;;;;;;4201443;28;20110;-55
2023/05/01 04:25:09;;;;;;;1.25;1.25;;;;;;;;;;4205821;28;20047;-55
2023/05/01 04:27:30;;;;;;;1.40;1.40;;;;;;;;;;4207024;28;20082;-55
2023/05/01 04:29:51;;;;;;;1.50;1.50;;;;;;;;;;4207043;28;20074;-56
2023/05/01 04:32:11;;;;;;;1.40;1.30;;;;;;;;;;4205655;28;20059;-55
2023/05/01 04:34:31;;;;;;;1.23;1.23;;;;;;;;;;4207197;28;20116;-55
2023/05/01 04:36:52;;;;;;;1.20;1.20;;;;;;;;;;4207348;28;20408;-55
2023/05/01 04:39:11;;;;;;;1.40;1.40;;;;;;;;;;4206836;28;20100;-55
2023/05/01 04:41:32;;;;;;;1.42;1.42;;;;;;;;;;4206691;28;20086;-55
2023/05/01 04:43:52;;;;;;;1.30;1.30;;;;;;;;;;4207248;28;20306;-56
2023/05/01 04:46:12;;;;;;;1.30;1.30;;;;;;;;;;4207149;28;20099;-56
2023/05/01 04:48:32;;;;;;;1.98;1.98;;;;;;;;;;4206129;28;20418;-56
2023/05/01 04:50:53;;;;;;;1.52;1.52;;;;;;;;;;4190780;28;20377;-56
2023/05/01 04:53:14;;;;;;;1.25;1.25;;;;;;;;;;4207044;28;20055;-55
2023/05/01 04:55:34;;;;;;;1.35;1.35;;;;;;;;;;4206715;28;20071;-55
2023/05/01 04:57:56;;;;;;;1.67;1.60;;;;;;;;;;4205531;28;20055;-56
2023/05/01 05:00:18;;;;;;;1.17;1.10;;;;;;;;;;4207105;28;20059;-55
2023/05/01 05:02:38;;;;;;;1.30;1.30;;;;;;;;;;4206172;28;20095;-55
2023/05/01 05:04:58;;;;;;;1.30;1.20;;;;;;;;;;4206741;28;20394;-56
2023/05/01 05:07:18;;;;;;;1.20;1.20;;;;;;;;;;4204984;28;20083;-55
2023/05/01 05:09:39;;;;;;;1.20;1.20;;;;;;;;;;4206594;28;20146;-55
2023/05/01 05:12:00;;;;;;;1.40;1.40;;;;;;;;;;4208278;28;20075;-55
2023/05/01 05:14:20;;;;;;;1.20;1.20;;;;;;;;;;4206150;28;20098;-56
2023/05/01 05:16:40;;;;;;;1.20;1.20;;;;;;;;;;4205070;28;20055;-56
2023/05/01 05:19:00;;;;;;;1.10;1.10;;;;;;;;;;4205912;28;20074;-56
2023/05/01 05:21:21;;;;;;;1.10;1.10;;;;;;;;;;4203923;28;20086;-56
2023/05/01 05:23:41;;;;;;;1.52;1.52;;;;;;;;;;4206713;28;20047;-55
2023/05/01 05:26:01;;;;;;;1.50;1.50;;;;;;;;;;4206598;28;20130;-55
2023/05/01 05:28:22;;;;;;;1.10;1.10;;;;;;;;;;4204708;28;20098;-55
2023/05/01 05:30:43;;;;;;;1.13;1.13;;;;;;;;;;4206661;28;20143;-55
2023/05/01 05:33:04;;;;;;;1.30;1.30;;;;;;;;;;4195368;28;20051;-56
2023/05/01 05:35:24;;;;;;;1.10;1.10;;;;;;;;;;4206638;28;20052;-56
2023/05/01 05:37:44;;;;;;;1.23;1.20;;;;;;;;;;4204804;28;20050;-56
2023/05/01 05:40:06;;;;;;;1.58;1.50;;;;;;;;;;4206501;28;20043;-55
2023/05/01 05:42:26;;;;;;;1.20;1.20;;;;;;;;;;4206444;28;20060;-56
2023/05/01 05:44:46;;;;;;;1.30;1.30;;;;;;;;;;4206106;28;20051;-58
2023/05/01 05:47:06;;;;;;;1.60;1.10;;;;;;;;;;4206297;28;20464;-59
2023/05/01 05:49:27;;;;;;;1.10;1.10;;;;;;;;;;4206467;28;20047;-59
2023/05/01 05:51:47;;;;;;;1.23;1.23;;;;;;;;;;4206018;28;20070;-58
2023/05/01 05:54:07;;;;;;;1.20;1.20;;;;;;;;;;4190869;28;20044;-59
2023/05/01 05:56:27;;;;;;;1.20;1.20;;;;;;;;;;4206359;28;20334;-58
2023/05/01 05:58:47;;;;;;;1.00;1.00;;;;;;;;;;4205192;28;20270;-59
2023/05/01 06:01:08;;;;;;;1.70;1.63;;;;;;;;;;4205174;28;20270;-59
2023/05/01 06:03:28;;;;;;;1.20;1.20;;;;;;;;;;4206168;28;20282;-58
2023/05/01 06:05:48;;;;;;;1.20;1.20;;;;;;;;;;4205693;28;20393;-59
2023/05/01 06:08:09;;;;;;;1.48;1.20;;;;;;;;;;4205730;28;20048;-59
2023/05/01 06:10:29;;;;;;;1.13;1.10;;;;;;;;;;4205205;28;20239;-56
2023/05/01 06:12:50;;;;;;;1.10;1.10;;;;;;;;;;4204292;28;20048;-56
2023/05/01 06:15:30;;;;;;;1.00;1.00;;;;;;;;;;4205910;28;20052;-56
2023/05/01 06:17:50;;;;;;;1.33;1.13;;;;;;;;;;4206284;28;20105;-56
2023/05/01 06:20:10;;;;;;;1.10;1.10;;;;;;;;;;4205581;28;20054;-57
2023/05/01 06:22:31;;;;;;;1.30;1.30;;;;;;;;;;4205580;28;20044;-57
2023/05/01 06:24:51;;;;;;;1.20;1.20;;;;;;;;;;4205615;28;20047;-56
2023/05/01 06:27:11;;;;;;;1.10;1.10;;;;;;;;;;4205411;28;20250;-57
2023/05/01 06:29:31;;;;;;;9.43;2.13;;;;;;;;;;4205288;28;20247;-56
2023/05/01 06:31:51;;;;;;;1.35;1.00;;;;;;;;;;4205829;28;20055;-59
2023/05/01 06:34:12;;;;;;;0.90;0.90;;;;;;;;;;4204353;28;20044;-58
2023/05/01 06:36:32;;;;;;;1.00;1.00;;;;;;;;;;4205980;28;20086;-59
2023/05/01 06:38:52;;;;;;;1.05;1.05;;;;;;;;;;4205542;28;20063;-59
2023/05/01 06:41:12;;;;;;;0.95;0.95;;;;;;;;;;4204197;28;20091;-58
2023/05/01 06:43:32;;;;;;;1.00;1.00;;;;;;;;;;4205731;28;20078;-59
2023/05/01 06:45:53;;;;;;;1.38;1.00;;;;;;;;;;4205232;28;20191;-58
2023/05/01 06:48:13;;;;;;;0.90;0.90;;;;;;;;;;4205735;28;20250;-59
2023/05/01 06:50:34;;;;;;;0.90;0.90;;;;;;;;;;4205704;28;20231;-58
2023/05/01 06:52:54;;;;;;;1.00;1.00;;;;;;;;;;4204155;28;20396;-59
2023/05/01 06:55:14;;;;;;;1.50;1.40;;;;;;;;;;4205144;28;20374;-59
2023/05/01 06:57:34;;;;;;;1.00;1.00;;;;;;;;;;4205613;28;20059;-59
2023/05/01 06:59:55;;;;;;;0.90;0.90;;;;;;;;;;4203724;28;20295;-58
2023/05/01 07:02:15;;;;;;;0.98;0.98;;;;;;;;;;4205323;28;20284;-59
2023/05/01 07:04:36;;;;;;;1.00;1.00;;;;;;;;;;4204484;28;20047;-59
2023/05/01 07:06:56;;;;;;;1.00;1.00;;;;;;;;;;4205438;28;20241;-59
2023/05/01 07:09:16;;;;;;;0.90;0.90;;;;;;;;;;4205535;28;20043;-59
2023/05/01 07:11:37;;;;;;;1.00;1.00;;;;;;;;;;4205189;28;20365;-57
2023/05/01 07:13:57;;;;;;;1.88;0.90;;;;;;;;;;4204415;28;20419;-57
2023/05/01 07:16:17;;;;;;;0.93;0.93;;;;;;;;;;4190711;28;20056;-57
2023/05/01 07:18:38;;;;;;;1.17;1.02;;;;;;;;;;4205266;28;20083;-57
2023/05/01 07:20:58;;;;;;;0.90;0.90;;;;;;;;;;4204948;28;20082;-57
2023/05/01 07:23:18;;;;;;;1.73;1.08;;;;;;;;;;4204744;28;20126;-57
2023/05/01 07:25:40;;;;;;;1.10;1.10;;;;;;;;;;4204545;28;20089;-56
2023/05/01 07:28:03;;;;;;;0.90;0.90;;;;;;;;;;4204562;28;20567;-57
2023/05/01 07:30:23;;;;;;;0.90;0.90;;;;;;;;;;4204706;28;20230;-57
2023/05/01 07:32:43;;;;;;;1.10;1.00;;;;;;;;;;4204495;28;20062;-56
2023/05/01 07:35:04;;;;;;;0.95;0.95;;;;;;;;;;4205006;28;20040;-57
2023/05/01 07:37:25;;;;;;;1.00;1.00;;;;;;;;;;4204320;28;20056;-56
2023/05/01 07:39:45;;;;;;;1.23;1.23;;;;;;;;;;4204262;28;20082;-57
2023/05/01 07:42:06;;;;;;;3.47;1.10;;;;;;;;;;4204040;28;20078;-59
2023/05/01 07:44:26;;;;;;;1.20;1.10;;;;;;;;;;4204050;28;20055;-58
2023/05/01 07:46:46;;;;;;;0.90;0.90;;;;;;;;;;4208023;28;20243;-58
2023/05/01 07:49:07;;;;;;;1.00;1.00;;;;;;;;;;4206633;28;20106;-57
2023/05/01 07:51:27;;;;;;;1.02;1.02;;;;;;;;;;4207850;28;20052;-56
2023/05/01 07:53:48;;;;;;;0.90;0.90;;;;;;;;;;4205890;28;20047;-57
2023/05/01 07:56:09;;;;;;;1.30;1.30;;;;;;;;;;4207334;28;20090;-58
2023/05/01 07:58:29;;;;;;;1.10;1.10;;;;;;;;;;4207184;28;20087;-58
2023/05/01 08:00:50;;;;;;;1.00;1.00;;;;;;;;;;4205927;28;20082;-59
2023/05/01 08:03:10;;;;;;;1.00;1.00;;;;;;;;;;4207792;28;20047;-59
2023/05/01 08:05:31;;;;;;;0.95;0.95;;;;;;;;;;4207427;28;20127;-59
2023/05/01 08:07:51;;;;;;;1.00;1.00;;;;;;;;;;4206139;28;20075;-59
2023/05/01 08:10:11;;;;;;;1.70;1.00;;;;;;;;;;4205446;28;20101;-59
2023/05/01 08:12:32;;;;;;;1.10;1.10;;;;;;;;;;4207357;28;20051;-59
2023/05/01 08:14:52;;;;;;;1.00;1.00;;;;;;;;;;4207569;28;20051;-58
2023/05/01 08:17:13;;;;;;;1.10;1.10;;;;;;;;;;4205464;28;20047;-58
2023/05/01 08:19:34;;;;;;;1.00;1.00;;;;;;;;;;4207450;28;20066;-58
2023/05/01 08:21:54;;;;;;;1.08;0.98;;;;;;;;;;4207507;28;20318;-58
2023/05/01 08:24:14;;;;;;;1.00;1.00;;;;;;;;;;4207595;28;20086;-58
2023/05/01 08:26:34;;;;;;;1.10;1.10;;;;;;;;;;4207521;28;20047;-58
2023/05/01 08:28:55;;;;;;;1.95;1.00;;;;;;;;;;4207369;28;20106;-58
2023/05/01 08:31:15;;;;;;;1.92;0.90;;;;;;;;;;4207207;28;20243;-58
2023/05/01 08:33:35;;;;;;;1.10;1.10;;;;;;;;;;4207268;28;20115;-58
2023/05/01 08:35:55;;;;;;;1.10;1.10;;;;;;;;;;4206635;28;20239;-59
2023/05/01 08:38:16;;;;;;;1.25;1.25;;;;;;;;;;4207468;28;20119;-59
2023/05/01 08:40:39;;;;;;;1.23;1.23;;;;;;;;;;4206234;28;20048;-59
2023/05/01 08:43:01;;;;;;;1.10;1.10;;;;;;;;;;4206606;28;20103;-59
2023/05/01 08:45:24;;;;;;;1.00;1.00;;;;;;;;;;4207206;28;20078;-59
2023/05/01 08:47:44;;;;;;;1.00;1.00;;;;;;;;;;4207138;28;20377;-59
2023/05/01 08:50:13;;;;;;;0.90;0.90;;;;;;;;;;4206871;28;20116;-59
2023/05/01 08:52:33;;;;;;;1.00;1.00;;;;;;;;;;4206690;28;20407;-58
2023/05/01 08:54:55;;;;;;;1.00;1.00;;;;;;;;;;4207078;28;20151;-60
2023/05/01 08:57:16;;;;;;;0.90;0.90;;;;;;;;;;4205937;28;20043;-59
2023/05/01 08:59:37;;;;;;;1.00;1.00;;;;;;;;;;4206295;28;20047;-58
2023/05/01 09:02:00;;;;;;;1.10;1.10;;;;;;;;;;4207062;28;20302;-59
2023/05/01 09:04:21;;;;;;;0.95;0.95;;;;;;;;;;4206491;28;20044;-59
2023/05/01 09:06:43;;;;;;;1.30;0.93;;;;;;;;;;4206935;28;20055;-59
2023/05/01 09:09:04;;;;;;;0.98;0.98;;;;;;;;;;4206570;28;20238;-59
2023/05/01 09:11:25;;;;;;;1.00;1.00;;;;;;;;;;4206614;28;20078;-58
2023/05/01 09:13:46;;;;;;;1.60;1.10;;;;;;;;;;4206518;28;20048;-58
2023/05/01 09:16:06;;;;;;;1.15;1.15;;;;;;;;;;4206795;28;20047;-58
2023/05/01 09:18:27;;;;;;;1.05;1.05;;;;;;;;;;4206722;28;20043;-59
2023/05/01 09:20:47;;;;;;;1.02;1.02;;;;;;;;;;4206697;28;20056;-59
2023/05/01 09:23:07;;;;;;;1.02;1.02;;;;;;;;;;4192331;28;20043;-59
2023/05/01 09:25:27;;;;;;;1.00;1.00;;;;;;;;;;4206537;28;20097;-57
2023/05/01 09:27:48;;;;;;;1.10;1.10;;;;;;;;;;4206239;28;20036;-56
2023/05/01 09:30:09;;;;;;;1.00;1.00;;;;;;;;;;4206156;28;20052;-56
2023/05/01 09:32:29;;;;;;;1.00;1.00;;;;;;;;;;4206520;28;20908;-57
2023/05/01 09:34:50;;;;;;;1.88;1.10;;;;;;;;;;4206490;28;20124;-56
2023/05/01 09:37:12;;;;;;;1.10;1.10;;;;;;;;;;4205801;28;20239;-56
2023/05/01 09:39:32;;;;;;;1.42;1.15;;;;;;;;;;4206189;28;20082;-57
2023/05/01 09:41:52;;;;;;;2.40;0.93;;;;;;;;;;4206580;28;20059;-56
2023/05/01 09:44:18;;;;;;;1.00;1.00;;;;;;;;;;4205850;28;20051;-56
2023/05/01 09:46:42;;;;;;;1.52;1.42;;;;;;;;;;4205534;28;20106;-56
2023/05/01 09:49:02;;;;;;;1.10;1.10;;;;;;;;;;4191132;28;20055;-56
2023/05/01 09:51:26;;;;;;;1.10;1.10;;;;;;;;;;4205708;28;20423;-56
2023/05/01 09:53:47;;;;;;;1.00;1.00;;;;;;;;;;4204820;28;20047;-56
2023/05/01 09:56:07;;;;;;;1.10;1.10;;;;;;;;;;4205765;28;20047;-56
2023/05/01 09:58:27;;;;;;;1.10;1.05;;;;;;;;;;4205745;28;20110;-56
2023/05/01 10:00:50;;;;;;;1.10;1.10;;;;;;;;;;4205604;28;20048;-56
2023/05/01 10:03:14;;;;;;;1.17;1.10;;;;;;;;;;4205808;28;20063;-56
2023/05/01 10:05:44;;;;;;;1.45;1.45;;;;;;;;;;4206191;28;20401;-56
2023/05/01 10:08:09;;;;;;;1.58;1.10;;;;;;;;;;4205128;28;20079;-56
2023/05/01 10:10:29;;;;;;;1.10;1.00;;;;;;;;;;4206081;28;20400;-56
2023/05/01 10:12:50;;;;;;;1.23;1.17;;;;;;;;;;4206084;28;20299;-57
2023/05/01 10:15:10;;;;;;;1.58;1.20;;;;;;;;;;4205613;28;20051;-56
2023/05/01 10:17:44;;;;;;;1.30;1.30;;;;;;;;;;4205884;28;20062;-56
2023/05/01 10:20:06;;;;;;;1.65;1.55;;;;;;;;;;4205175;28;20071;-57
2023/05/01 10:22:27;;;;;;;1.30;1.30;;;;;;;;;;4205632;28;20051;-57
2023/05/01 10:24:47;;;;;;;1.20;1.20;;;;;;;;;;4204878;28;20062;-57
2023/05/01 10:27:09;;;;;;;1.13;1.13;;;;;;;;;;4205981;28;20047;-56
2023/05/01 10:29:31;;;;;;;1.10;1.10;;;;;;;;;;4205877;28;20043;-56
2023/05/01 10:31:51;;;;;;;1.53;1.07;;;;;;;;;;4205947;28;20161;-56
2023/05/01 10:34:16;;;;;;;1.55;1.45;;;;;;;;;;4204401;28;20108;-56
2023/05/01 10:36:42;;;;;;;1.10;1.10;;;;;;;;;;4204832;28;20089;-56
2023/05/01 10:39:02;;;;;;;1.30;1.30;;;;;;;;;;4205368;28;20079;-56
2023/05/01 10:41:41;;;;;;;1.33;1.33;;;;;;;;;;4205234;28;20055;-56
2023/05/01 10:44:22;;;;;;;1.35;1.27;;;;;;;;;;4203844;28;20042;-56
2023/05/01 10:46:43;;;;;;;1.20;1.20;;;;;;;;;;4205026;28;20366;-56
2023/05/01 10:49:03;;;;;;;1.10;1.10;;;;;;;;;;4203861;28;20374;-56
2023/05/01 10:51:24;;;;;;;1.35;1.35;;;;;;;;;;4205551;28;20051;-56
2023/05/01 10:54:06;;;;;;;1.20;1.20;;;;;;;;;;4205387;28;20039;-59
2023/05/01 10:56:26;;;;;;;1.48;1.38;;;;;;;;;;4205587;28;20413;-58
2023/05/01 10:58:50;;;;;;;1.30;1.30;;;;;;;;;;4204888;28;20071;-58
2023/05/01 11:01:29;;;;;;;1.42;1.42;;;;;;;;;;4205813;28;20112;-58
2023/05/01 11:03:50;;;;;;;1.25;1.23;;;;;;;;;;4204007;28;20095;-58
2023/05/01 11:06:11;;;;;;;1.30;1.30;;;;;;;;;;4204071;28;20055;-58
2023/05/01 11:08:32;;;;;;;1.40;1.40;;;;;;;;;;4204925;28;20275;-58
2023/05/01 11:10:52;;;;;;;1.48;1.48;;;;;;;;;;4205452;28;20267;-58
2023/05/01 11:13:12;;;;;;;1.40;1.40;;;;;;;;;;4203939;28;20090;-59
2023/05/01 11:15:33;;;;;;;1.85;1.75;;;;;;;;;;4205317;28;20044;-58
2023/05/01 11:17:54;;;;;;;1.88;1.52;;;;;;;;;;4205310;28;20051;-58
2023/05/01 11:20:24;;;;;;;1.42;1.42;;;;;;;;;;4204783;28;20085;-58
2023/05/01 11:22:46;;;;;;;1.30;1.30;;;;;;;;;;4208260;28;20050;-58
2023/05/01 11:25:22;;;;;;;1.63;1.52;;;;;;;;;;4208241;28;20052;-58
2023/05/01 11:27:47;;;;;;;1.25;1.25;;;;;;;;;;4208249;28;20362;-58
2023/05/01 11:30:07;;;;;;;1.60;1.50;;;;;;;;;;4208228;28;20114;-58
2023/05/01 11:32:30;;;;;;;1.88;1.77;;;;;;;;;;4208269;28;20082;-58
2023/05/01 11:34:51;;;;;;;1.80;1.80;;;;;;;;;;4208092;28;20090;-58
2023/05/01 11:37:12;;;;;;;1.77;1.48;;;;;;;;;;4191954;28;20052;-57
2023/05/01 11:39:32;;;;;;;2.53;2.35;;;;;;;;;;4208073;28;20064;-57
2023/05/01 11:42:05;;;;;;;1.30;1.30;;;;;;;;;;4207058;28;20074;-58
2023/05/01 11:44:26;;;;;;;2.22;2.20;;;;;;;;;;4207524;28;20043;-58
2023/05/01 11:46:56;;;;;;;1.63;1.63;;;;;;;;;;4206430;28;20060;-58
2023/05/01 11:49:25;;;;;;;1.60;1.60;;;;;;;;;;4207411;28;20043;-58
2023/05/01 11:51:55;;;;;;;1.80;1.80;;;;;;;;;;4208003;28;20060;-58
2023/05/01 11:54:16;;;;;;;2.15;2.05;;;;;;;;;;4206100;28;20116;-57
2023/05/01 11:56:37;;;;;;;2.15;1.50;;;;;;;;;;4207553;28;20374;-58
2023/05/01 11:58:58;;;;;;;2.42;2.33;;;;;;;;;;4207576;28;20412;-58
2023/05/01 12:01:18;;;;;;;1.80;1.70;;;;;;;;;;4206422;28;20112;-57
2023/05/01 12:03:42;;;;;;;2.05;2.05;;;;;;;;;;4192557;28;20048;-58
2023/05/01 12:06:03;;;;;;;1.65;1.55;;;;;;;;;;4207787;28;20125;-58
2023/05/01 12:08:24;;;;;;;1.80;1.80;;;;;;;;;;4206979;28;20063;-58
2023/05/01 12:10:45;;;;;;;1.85;1.83;;;;;;;;;;4205533;28;20070;-58
2023/05/01 12:13:05;;;;;;;2.40;1.65;;;;;;;;;;4204969;28;20143;-57
2023/05/01 12:15:25;;;;;;;2.78;1.63;;;;;;;;;;4207325;28;20235;-58
2023/05/01 12:17:47;;;;;;;1.80;1.80;;;;;;;;;;4206366;28;20086;-59
2023/05/01 12:20:07;;;;;;;1.48;1.48;;;;;;;;;;4207576;28;20377;-58
2023/05/01 12:22:28;;;;;;;2.83;1.90;;;;;;;;;;4207615;28;20081;-58
2023/05/01 12:24:52;;;;;;;1.42;1.42;;;;;;;;;;4207383;28;20094;-58
2023/05/01 12:27:13;;;;;;;1.60;1.60;;;;;;;;;;4206688;28;20043;-57
2023/05/01 12:29:40;;;;;;;1.35;1.35;;;;;;;;;;4205571;28;20090;-58
2023/05/01 12:32:00;;;;;;;1.77;1.67;;;;;;;;;;4205541;28;20110;-58
2023/05/01 12:34:28;;;;;;;2.40;1.60;;;;;;;;;;4207420;28;20293;-58
2023/05/01 12:36:53;;;;;;;1.83;1.73;;;;;;;;;;4207339;28;20047;-58
2023/05/01 12:39:13;;;;;;;1.58;1.50;;;;;;;;;;4206801;28;20462;-58
2023/05/01 12:41:34;;;;;;;1.90;1.80;;;;;;;;;;4207295;28;20047;-58
2023/05/01 12:43:54;;;;;;;1.92;1.83;;;;;;;;;;4207288;28;20052;-59
2023/05/01 12:46:15;;;;;;;1.50;1.50;;;;;;;;;;4207235;28;20064;-59
2023/05/01 12:48:38;;;;;;;1.75;1.65;;;;;;;;;;4207261;28;20113;-58
2023/05/01 12:50:59;;;;;;;1.55;1.48;;;;;;;;;;4207386;28;20044;-58
2023/05/01 12:53:23;;;;;;;1.75;1.75;;;;;;;;;;4205921;28;20044;-58
2023/05/01 12:55:49;;;;;;;1.58;1.58;;;;;;;;;;4207045;28;20396;-58
2023/05/01 12:58:09;;;;;;;1.70;1.70;;;;;;;;;;4206748;28;20418;-58
2023/05/01 13:00:40;;;;;;;2.00;1.90;;;;;;;;;;4206505;28;20051;-59
2023/05/01 13:03:03;;;;;;;1.70;1.60;;;;;;;;;;4206324;28;20086;-58
2023/05/01 13:05:23;;;;;;;2.65;1.92;;;;;;;;;;4207080;28;20393;-58
2023/05/01 13:07:48;;;;;;;2.00;1.90;;;;;;;;;;4206381;28;20087;-58
2023/05/01 13:10:08;;;;;;;1.70;1.60;;;;;;;;;;4206917;28;20066;-59
2023/05/01 13:12:29;;;;;;;1.70;1.60;;;;;;;;;;4206562;28;20299;-58
2023/05/01 13:14:50;;;;;;;1.70;1.70;;;;;;;;;;4206449;28;20047;-58
2023/05/01 13:17:11;;;;;;;1.90;1.80;;;;;;;;;;4206423;28;20239;-58
2023/05/01 13:19:31;;;;;;;1.92;1.80;;;;;;;;;;4206743;28;20039;-58
2023/05/01 13:21:51;;;;;;;1.70;1.70;;;;;;;;;;4206864;28;20366;-58
2023/05/01 13:24:11;;;;;;;1.88;1.77;;;;;;;;;;4206617;28;20068;-58
2023/05/01 13:26:34;;;;;;;1.98;1.77;;;;;;;;;;4206742;28;20075;-58
2023/05/01 13:28:55;;;;;;;1.65;1.65;;;;;;;;;;4206555;28;20108;-58
2023/05/01 13:31:16;;;;;;;2.10;1.88;;;;;;;;;;4206597;28;20090;-58
2023/05/01 13:33:36;;;;;;;1.70;1.63;;;;;;;;;;4206502;28;20044;-58
2023/05/01 13:35:56;;;;;;;1.20;1.20;;;;;;;;;;4198853;28;20405;-58
2023/05/01 13:38:22;;;;;;;1.50;1.40;;;;;;;;;;4206417;28;20405;-58
2023/05/01 13:40:42;;;;;;;1.60;1.48;;;;;;;;;;4205886;28;20306;-58
2023/05/01 13:43:02;;;;;;;1.58;1.58;;;;;;;;;;4203593;28;20039;-58
2023/05/01 13:45:23;;;;;;;4.10;3.95;;;;;;;;;;4205771;28;20043;-58
2023/05/01 13:47:43;;;;;;;3.75;3.65;;;;;;;;;;4204467;28;20087;-58
2023/05/01 13:50:04;;;;;;;2.53;2.42;;;;;;;;;;4206292;28;20044;-58
2023/05/01 13:52:24;;;;;;;1.92;1.85;;;;;;;;;;4206325;28;20153;-58
2023/05/01 13:54:45;;;;;;;1.35;1.35;;;;;;;;;;4206034;28;20051;-58
2023/05/01 13:57:05;;;;;;;1.52;1.42;;;;;;;;;;4206042;28;20051;-58
2023/05/01 13:59:32;;;;;;;1.40;1.40;;;;;;;;;;4206173;28;20055;-58
2023/05/01 14:01:53;;;;;;;1.70;1.60;;;;;;;;;;4205788;28;20051;-58
2023/05/01 14:04:19;;;;;;;3.00;2.33;;;;;;;;;;4206241;28;20239;-58
2023/05/01 14:06:43;;;;;;;2.30;2.22;;;;;;;;;;4205368;28;20056;-58
2023/05/01 14:09:04;;;;;;;2.67;2.58;;;;;;;;;;4204763;28;20145;-58
2023/05/01 14:11:24;;;;;;;3.03;2.65;;;;;;;;;;4205920;28;20110;-58